createdAt,value
2022-12-05T00:03:53.356Z,64.53
2022-12-05T00:06:20.901Z,66.78
2022-12-05T00:08:48.408Z,63.80
2022-12-05T00:11:17.710Z,61.15
2022-12-05T00:13:44.853Z,59.92
2022-12-05T00:16:13.968Z,71.75
2022-12-05T00:18:40.989Z,65.25
2022-12-05T00:21:22.156Z,64.85
2022-12-05T00:23:49.738Z,65.70
2022-12-05T00:26:16.728Z,64.18
2022-12-05T00:28:44.587Z,66.85
2022-12-05T00:31:20.102Z,59.97
2022-12-05T00:33:47.109Z,67.30
2022-12-05T00:36:25.277Z,62.50
2022-12-05T00:39:06.166Z,64.63
2022-12-05T00:41:32.885Z,64.25
2022-12-05T00:44:03.102Z,69.60
2022-12-05T00:46:54.624Z,64.65
2022-12-05T00:49:29.681Z,69.30
2022-12-05T00:51:56.430Z,57.83
2022-12-05T00:54:22.929Z,59.42
2022-12-05T00:56:52.237Z,59.10
2022-12-05T00:59:22.295Z,62.30
2022-12-05T01:01:50.808Z,70.03
2022-12-05T01:04:20.468Z,61.17
2022-12-05T01:09:16.365Z,62.70
2022-12-05T01:11:43.979Z,58.15
2022-12-05T01:14:12.437Z,55.45
2022-12-05T01:17:06.929Z,62.17
2022-12-05T01:19:33.584Z,57.20
2022-12-05T01:22:02.821Z,54.92
2022-12-05T01:24:30.552Z,59.13
2022-12-05T01:26:59.077Z,53.63
2022-12-05T01:29:29.489Z,52.38
2022-12-05T01:31:56.449Z,52.63
2022-12-05T01:34:26.040Z,46.65
2022-12-05T01:36:52.824Z,49.10
2022-12-05T01:39:19.512Z,49.45
2022-12-05T01:41:52.936Z,51.22
2022-12-05T01:44:22.396Z,50.10
2022-12-05T01:46:52.147Z,47.30
2022-12-05T01:49:48.561Z,52.53
2022-12-05T01:52:25.372Z,48.53
2022-12-05T01:55:06.032Z,52.63
2022-12-05T01:57:33.378Z,48.75
2022-12-05T02:00:12.248Z,45.88
2022-12-05T02:03:06.033Z,48.70
2022-12-05T02:05:36.830Z,49.45
2022-12-05T02:08:07.845Z,48.15
2022-12-05T02:10:42.633Z,44.03
2022-12-05T02:14:24.247Z,50.33
2022-12-05T02:17:13.975Z,45.17
2022-12-05T02:20:30.730Z,42.80
2022-12-05T02:23:19.703Z,45.28
2022-12-05T02:26:16.453Z,49.47
2022-12-05T02:29:08.827Z,44.80
2022-12-05T02:31:51.519Z,43.65
2022-12-05T02:34:58.790Z,47.45
2022-12-05T02:37:56.303Z,43.17
2022-12-05T02:40:53.426Z,44.20
2022-12-05T02:44:24.598Z,38.38
2022-12-05T02:50:00.532Z,43.67
2022-12-05T02:53:00.528Z,46.60
2022-12-05T02:58:33.728Z,43.22
2022-12-05T03:01:01.454Z,45.78
2022-12-05T03:03:29.032Z,45.15
2022-12-05T03:06:34.690Z,44.05
2022-12-05T03:09:06.687Z,46.42
2022-12-05T03:12:26.778Z,41.38
2022-12-05T03:15:18.349Z,44.35
2022-12-05T03:17:53.076Z,44.85
2022-12-05T03:20:29.407Z,44.20
2022-12-05T03:23:20.911Z,42.95
2022-12-05T03:26:34.651Z,40.85
2022-12-05T03:29:12.967Z,43.03
2022-12-05T03:31:52.899Z,42.05
2022-12-05T03:34:45.728Z,47.80
2022-12-05T03:37:41.271Z,40.75
2022-12-05T03:40:26.683Z,44.95
2022-12-05T03:43:14.591Z,39.50
2022-12-05T03:46:13.329Z,44.28
2022-12-05T04:59:02.056Z,29.52
2022-12-05T05:02:03.011Z,28.65
2022-12-05T05:07:36.113Z,30.75
2022-12-05T05:48:25.004Z,45.47
2022-12-05T07:48:05.053Z,38.97
2022-12-05T07:50:31.697Z,37.38
2022-12-05T07:52:58.248Z,38.95
2022-12-05T07:55:24.873Z,35.15
2022-12-05T07:57:51.490Z,36.53
2022-12-05T08:00:18.729Z,34.70
2022-12-05T08:02:45.367Z,33.85
2022-12-05T08:05:12.056Z,35.75
2022-12-05T08:07:38.680Z,37.80
2022-12-05T08:10:06.087Z,36.42
2022-12-05T08:12:32.677Z,32.72
2022-12-05T08:15:17.925Z,34.28
2022-12-05T08:18:09.350Z,32.33
2022-12-05T08:20:35.915Z,33.72
2022-12-05T08:23:02.465Z,35.30
2022-12-05T08:25:29.121Z,32.88
2022-12-05T08:27:55.714Z,32.95
2022-12-05T08:30:22.931Z,27.15
2022-12-05T08:32:49.523Z,29.00
2022-12-05T08:35:19.351Z,27.77
2022-12-05T08:37:48.063Z,29.77
2022-12-05T08:40:14.697Z,27.03
2022-12-05T08:42:41.302Z,27.08
2022-12-05T08:45:08.473Z,24.85
2022-12-05T08:47:35.234Z,29.23
2022-12-05T08:50:05.580Z,25.15
2022-12-05T08:52:32.187Z,29.38
2022-12-05T08:54:59.150Z,40.92
2022-12-05T08:57:32.365Z,28.08
2022-12-05T08:59:58.898Z,22.92
2022-12-05T09:02:25.595Z,22.33
2022-12-05T09:04:56.175Z,23.80
2022-12-05T09:10:30.782Z,35.28
2022-12-05T09:12:57.385Z,32.78
2022-12-05T09:15:25.810Z,23.40
2022-12-05T09:17:52.437Z,37.15
2022-12-05T09:20:44.476Z,22.05
2022-12-05T09:23:16.142Z,20.48
2022-12-05T09:26:33.376Z,20.70
2022-12-05T09:29:01.660Z,19.30
2022-12-05T09:31:43.025Z,19.15
2022-12-05T09:34:10.535Z,21.05
2022-12-05T09:36:37.726Z,19.25
2022-12-05T09:39:06.329Z,23.23
2022-12-05T09:42:08.909Z,22.15
2022-12-05T09:44:56.633Z,20.63
2022-12-05T09:47:26.087Z,17.85
2022-12-05T09:50:21.078Z,16.50
2022-12-05T09:52:59.097Z,18.52
2022-12-05T09:55:41.164Z,17.98
2022-12-05T09:58:21.276Z,19.42
2022-12-05T10:00:57.515Z,21.15
2022-12-05T10:03:43.027Z,21.50
2022-12-05T10:06:29.008Z,20.85
2022-12-05T10:09:19.820Z,21.75
2022-12-05T10:12:02.872Z,20.75
2022-12-05T10:15:08.572Z,18.23
2022-12-05T10:17:39.834Z,19.60
2022-12-05T10:20:19.151Z,20.02
2022-12-05T10:23:02.054Z,19.45
2022-12-05T10:25:31.520Z,19.77
2022-12-05T10:28:12.907Z,21.52
2022-12-05T10:30:42.374Z,22.75
2022-12-05T10:35:45.623Z,19.05
2022-12-05T10:38:29.103Z,19.77
2022-12-05T10:44:09.770Z,21.40
2022-12-05T10:46:39.327Z,20.58
2022-12-05T10:51:50.374Z,16.90
2022-12-05T10:54:53.179Z,19.17
2022-12-05T10:57:26.544Z,15.35
2022-12-05T10:59:57.746Z,17.33
2022-12-05T11:05:14.221Z,14.98
2022-12-05T11:07:49.429Z,21.75
2022-12-05T11:10:31.096Z,18.30
2022-12-05T11:13:25.405Z,17.70
2022-12-05T11:15:55.569Z,16.77
2022-12-05T11:18:25.446Z,14.80
2022-12-05T11:23:30.651Z,15.02
2022-12-05T11:25:58.665Z,18.20
2022-12-05T11:28:33.352Z,13.57
2022-12-05T11:31:07.267Z,16.75
2022-12-05T11:33:36.058Z,14.98
2022-12-05T11:36:14.439Z,15.87
2022-12-05T11:38:41.912Z,14.05
2022-12-05T11:41:34.100Z,15.10
2022-12-05T11:44:19.264Z,14.50
2022-12-05T11:47:00.282Z,15.88
2022-12-05T11:49:48.254Z,13.80
2022-12-05T11:52:29.306Z,14.60
2022-12-05T11:55:16.544Z,15.98
2022-12-05T11:57:47.417Z,17.25
2022-12-05T12:01:12.330Z,14.57
2022-12-05T12:03:57.700Z,16.13
2022-12-05T12:06:29.425Z,15.68
2022-12-05T12:09:05.939Z,17.83
2022-12-05T12:11:58.411Z,17.38
2022-12-05T12:15:02.020Z,19.08
2022-12-05T12:17:43.563Z,16.27
2022-12-05T12:20:30.389Z,18.58
2022-12-05T12:23:18.790Z,21.35
2022-12-05T12:26:04.041Z,18.92
2022-12-05T12:29:16.562Z,19.83
2022-12-05T12:32:06.514Z,21.98
2022-12-05T12:35:02.013Z,19.08
2022-12-05T12:37:49.978Z,21.10
2022-12-05T12:40:19.291Z,19.88
2022-12-05T12:43:30.871Z,19.85
2022-12-05T12:46:13.536Z,21.00
2022-12-05T12:48:49.006Z,18.40
2022-12-05T12:51:44.906Z,21.70
2022-12-05T12:55:02.968Z,15.85
2022-12-05T12:57:55.073Z,17.98
2022-12-05T13:00:30.501Z,16.25
2022-12-05T13:03:30.381Z,18.75
2022-12-05T13:06:17.863Z,18.08
2022-12-05T13:09:19.792Z,20.65
2022-12-05T13:12:24.358Z,29.17
2022-12-05T13:15:02.818Z,37.70
2022-12-05T13:17:40.464Z,32.35
2022-12-05T13:20:16.389Z,38.22
2022-12-05T13:22:49.311Z,30.88
2022-12-05T13:25:19.128Z,31.42
2022-12-05T13:27:59.064Z,26.17
2022-12-05T13:30:28.735Z,21.42
2022-12-05T13:32:57.859Z,19.67
2022-12-05T13:35:51.539Z,17.77
2022-12-05T13:38:59.994Z,18.08
2022-12-05T13:42:04.318Z,17.00
2022-12-05T13:44:41.458Z,15.20
2022-12-05T13:47:39.335Z,18.20
2022-12-05T13:50:34.322Z,15.13
2022-12-05T13:53:05.247Z,14.82
2022-12-05T13:55:54.470Z,16.58
2022-12-05T13:58:24.154Z,16.95
2022-12-05T14:03:40.148Z,17.92
2022-12-05T14:06:06.949Z,21.35
2022-12-05T14:08:39.607Z,20.42
2022-12-05T14:11:19.175Z,17.73
2022-12-05T14:13:47.736Z,17.95
2022-12-05T14:16:34.252Z,19.13
2022-12-05T14:19:37.601Z,19.33
2022-12-05T14:22:48.985Z,21.48
2022-12-05T14:25:49.001Z,22.17
2022-12-05T14:29:17.530Z,17.20
2022-12-05T14:32:32.485Z,17.30
2022-12-05T14:35:32.485Z,26.40
2022-12-05T14:38:06.620Z,27.27
2022-12-05T14:40:40.907Z,24.98
2022-12-05T14:43:29.062Z,21.60
2022-12-05T14:46:08.534Z,21.48
2022-12-05T14:48:45.728Z,22.58
2022-12-05T14:51:32.630Z,23.70
2022-12-05T14:54:18.940Z,21.02
2022-12-05T14:57:02.029Z,26.42
2022-12-05T14:59:40.298Z,22.95
2022-12-05T15:02:36.304Z,20.00
2022-12-05T15:05:31.282Z,21.42
2022-12-05T15:08:01.600Z,19.83
2022-12-05T15:10:52.623Z,21.38
2022-12-05T15:13:24.704Z,20.88
2022-12-05T15:16:00.074Z,23.33
2022-12-05T15:18:57.792Z,21.50
2022-12-05T15:21:32.299Z,20.30
2022-12-05T15:24:11.972Z,19.25
2022-12-05T15:26:47.343Z,18.50
2022-12-05T15:29:20.823Z,23.05
2022-12-05T15:31:48.685Z,17.77
2022-12-05T15:34:44.929Z,16.08
2022-12-05T15:37:26.251Z,18.33
2022-12-05T15:40:10.705Z,17.75
2022-12-05T15:42:44.187Z,18.52
2022-12-05T15:45:30.266Z,21.83
2022-12-05T15:48:12.680Z,20.17
2022-12-05T15:53:59.367Z,23.00
2022-12-05T15:56:43.206Z,22.27
2022-12-05T15:59:17.285Z,23.92
2022-12-05T16:02:04.150Z,24.17
2022-12-05T16:05:10.906Z,22.10
2022-12-05T16:07:37.493Z,23.73
2022-12-05T16:10:05.360Z,24.67
2022-12-05T16:12:39.314Z,25.63
2022-12-05T16:15:31.074Z,25.63
2022-12-05T16:18:03.606Z,24.55
2022-12-05T16:20:40.318Z,22.02
2022-12-05T16:23:25.629Z,26.73
2022-12-05T16:25:52.284Z,22.15
2022-12-05T16:28:21.245Z,24.17
2022-12-05T16:31:02.719Z,19.33
2022-12-05T16:33:30.657Z,21.13
2022-12-05T16:36:11.563Z,19.42
2022-12-05T16:38:47.780Z,19.83
2022-12-05T16:41:17.040Z,20.73
2022-12-05T16:43:47.453Z,20.85
2022-12-05T16:46:14.463Z,20.63
2022-12-05T16:48:45.282Z,22.00
2022-12-05T16:51:28.586Z,21.00
2022-12-05T16:54:20.073Z,21.55
2022-12-05T16:56:49.101Z,20.52
2022-12-05T16:59:42.289Z,21.25
2022-12-05T17:02:40.622Z,22.20
2022-12-05T17:05:14.177Z,23.92
2022-12-05T17:07:40.845Z,22.08
2022-12-05T17:10:08.165Z,26.67
2022-12-05T17:12:35.092Z,22.42
2022-12-05T17:15:02.075Z,20.23
2022-12-05T17:17:28.927Z,21.77
2022-12-05T17:19:55.502Z,19.67
2022-12-05T17:22:27.024Z,19.95
2022-12-05T17:27:38.011Z,20.20
2022-12-05T17:30:29.702Z,20.50
2022-12-05T17:37:13.525Z,18.02
2022-12-05T17:40:31.088Z,17.80
2022-12-05T17:46:38.127Z,19.38
2022-12-05T17:49:04.718Z,22.08
2022-12-05T17:51:52.568Z,22.80
2022-12-05T17:54:23.962Z,20.50
2022-12-05T17:56:50.528Z,22.60
2022-12-05T17:59:17.090Z,20.30
2022-12-05T18:01:43.616Z,22.13
2022-12-05T18:07:21.149Z,22.65
2022-12-05T18:09:47.746Z,23.70
2022-12-05T18:12:17.618Z,23.65
2022-12-05T18:15:10.246Z,18.98
2022-12-05T18:17:36.900Z,19.55
2022-12-05T18:20:04.839Z,20.70
2022-12-05T18:22:34.734Z,19.88
2022-12-05T18:25:04.243Z,20.98
2022-12-05T18:27:31.727Z,18.33
2022-12-05T18:29:58.344Z,17.92
2022-12-05T18:32:25.517Z,17.50
2022-12-05T18:34:55.656Z,18.40
2022-12-05T18:37:55.335Z,22.08
2022-12-05T18:40:26.831Z,16.75
2022-12-05T18:43:06.088Z,18.50
2022-12-05T18:48:38.204Z,24.25
2022-12-05T18:51:34.244Z,23.55
2022-12-05T18:54:00.782Z,24.65
2022-12-05T18:56:30.979Z,21.98
2022-12-05T18:59:22.994Z,19.00
2022-12-05T19:01:50.484Z,22.20
2022-12-05T19:04:19.896Z,18.35
2022-12-05T19:06:52.934Z,20.60
2022-12-05T19:10:10.407Z,18.67
2022-12-05T19:12:37.739Z,18.30
2022-12-05T19:15:09.245Z,19.70
2022-12-05T19:17:39.116Z,18.20
2022-12-05T19:20:48.917Z,18.08
2022-12-05T19:23:41.321Z,16.70
2022-12-05T19:26:14.281Z,17.35
2022-12-05T19:28:40.959Z,22.08
2022-12-05T19:31:12.591Z,16.90
2022-12-05T19:33:41.629Z,19.23
2022-12-05T19:36:13.748Z,18.85
2022-12-05T19:38:43.323Z,18.23
2022-12-05T19:41:12.857Z,22.55
2022-12-05T19:43:41.499Z,17.92
2022-12-05T19:46:12.018Z,16.77
2022-12-05T19:49:28.814Z,20.27
2022-12-05T19:51:55.432Z,22.50
2022-12-05T19:54:23.999Z,18.00
2022-12-05T19:56:50.725Z,18.38
2022-12-05T19:59:17.386Z,18.40
2022-12-05T20:01:44.755Z,18.40
2022-12-05T20:04:14.568Z,18.15
2022-12-05T20:06:57.733Z,17.67
2022-12-05T20:09:24.825Z,18.23
2022-12-05T20:11:55.522Z,19.23
2022-12-05T20:14:38.831Z,18.45
2022-12-05T20:17:05.804Z,19.83
2022-12-05T20:19:32.396Z,17.27
2022-12-05T20:21:59.292Z,19.50
2022-12-05T20:24:25.810Z,21.42
2022-12-05T20:26:53.011Z,22.70
2022-12-05T20:32:48.132Z,20.00
2022-12-05T20:35:37.331Z,25.60
2022-12-05T20:38:56.944Z,17.23
2022-12-05T20:41:25.795Z,20.27
2022-12-05T20:44:15.887Z,18.08
2022-12-05T20:47:07.796Z,17.38
2022-12-05T20:50:09.172Z,17.67
2022-12-05T20:52:35.769Z,16.17
2022-12-05T20:55:02.438Z,15.63
2022-12-05T20:57:29.029Z,17.33
2022-12-05T20:59:55.532Z,18.98
2022-12-05T21:02:48.930Z,18.63
2022-12-05T21:05:15.620Z,17.95
2022-12-05T21:07:42.309Z,17.05
2022-12-05T21:13:35.578Z,19.50
2022-12-05T21:16:06.915Z,11.85
2022-12-05T21:18:34.432Z,16.65
2022-12-05T21:21:04.123Z,22.77
2022-12-05T21:26:49.495Z,16.67
2022-12-05T21:33:07.312Z,17.73
2022-12-05T22:11:33.112Z,13.75
2022-12-05T22:14:12.225Z,14.65
2022-12-05T22:16:49.683Z,14.80
2022-12-05T22:22:39.085Z,14.07
2022-12-05T22:36:17.375Z,14.73
2022-12-05T22:39:11.655Z,16.02
2022-12-05T22:41:57.880Z,15.48
2022-12-05T22:55:32.009Z,17.73
2022-12-05T23:00:52.465Z,18.92
2022-12-05T23:03:47.904Z,17.67
2022-12-05T23:06:33.677Z,19.63
2022-12-05T23:09:14.995Z,20.48
2022-12-05T23:12:02.807Z,23.42
2022-12-05T23:14:35.497Z,19.42
2022-12-05T23:17:23.876Z,18.65
2022-12-05T23:20:08.432Z,25.65
2022-12-05T23:23:03.193Z,19.48
2022-12-05T23:25:52.563Z,23.00
2022-12-05T23:28:21.523Z,27.20
2022-12-05T23:30:57.620Z,24.13
2022-12-05T23:33:31.328Z,22.67
2022-12-05T23:36:08.254Z,28.52
2022-12-05T23:39:02.351Z,24.60
2022-12-05T23:41:40.562Z,24.58
2022-12-05T23:44:13.367Z,23.65
2022-12-05T23:49:42.149Z,25.42
2022-12-05T23:55:06.579Z,24.13
